createdAt,value
2019-03-13T00:03:56.168Z,9.60
2019-03-13T00:06:37.452Z,9.10
2019-03-13T00:09:18.212Z,8.60
2019-03-13T00:11:59.040Z,8.40
2019-03-13T00:14:39.851Z,8.40
2019-03-13T00:17:21.012Z,8.10
2019-03-13T00:20:01.662Z,8.10
2019-03-13T00:22:42.268Z,8.10
2019-03-13T00:25:23.293Z,8.00
2019-03-13T00:28:04.284Z,7.90
2019-03-13T00:30:44.848Z,7.80
2019-03-13T00:33:25.613Z,7.90
2019-03-13T00:36:06.614Z,7.90
2019-03-13T00:38:47.025Z,7.90
2019-03-13T00:41:28.066Z,7.70
2019-03-13T00:44:09.305Z,7.80
2019-03-13T00:46:49.732Z,7.70
2019-03-13T00:49:30.653Z,7.80
2019-03-13T00:52:11.868Z,7.80
2019-03-13T00:54:52.647Z,7.70
2019-03-13T00:57:33.829Z,7.70
2019-03-13T01:00:20.019Z,7.60
2019-03-13T01:03:00.703Z,7.40
2019-03-13T01:05:51.287Z,7.30
2019-03-13T01:08:32.884Z,7.40
2019-03-13T01:11:13.355Z,7.20
2019-03-13T01:13:54.544Z,7.20
2019-03-13T01:16:34.949Z,7.20
2019-03-13T01:19:16.036Z,7.20
2019-03-13T01:21:56.815Z,7.20
2019-03-13T01:24:37.539Z,7.20
2019-03-13T01:27:18.079Z,7.30
2019-03-13T01:29:58.768Z,7.40
2019-03-13T01:32:51.007Z,7.40
2019-03-13T01:35:39.604Z,7.40
2019-03-13T01:38:20.140Z,7.40
2019-03-13T01:41:01.079Z,7.50
2019-03-13T01:43:42.452Z,7.40
2019-03-13T01:46:23.287Z,7.40
2019-03-13T01:49:03.868Z,7.30
2019-03-13T01:51:44.852Z,7.40
2019-03-13T01:54:26.020Z,7.30
2019-03-13T01:57:06.660Z,7.30
2019-03-13T01:59:47.492Z,7.20
2019-03-13T02:02:28.757Z,7.20
2019-03-13T02:05:10.024Z,7.10
2019-03-13T02:07:50.714Z,7.10
2019-03-13T02:10:31.153Z,7.00
2019-03-13T02:13:12.531Z,7.00
2019-03-13T02:15:53.834Z,7.10
2019-03-13T02:18:34.491Z,6.90
2019-03-13T02:21:15.410Z,6.90
2019-03-13T02:23:56.603Z,6.90
2019-03-13T02:26:37.306Z,6.60
2019-03-13T02:29:18.187Z,6.60
2019-03-13T02:31:59.088Z,6.50
2019-03-13T02:34:39.944Z,6.60
2019-03-13T02:37:20.818Z,6.50
2019-03-13T02:40:01.635Z,6.40
2019-03-13T02:42:42.735Z,6.50
2019-03-13T02:45:23.716Z,6.40
2019-03-13T02:48:04.587Z,6.30
2019-03-13T02:50:45.208Z,6.20
2019-03-13T02:53:26.088Z,6.20
2019-03-13T02:56:07.467Z,6.10
2019-03-13T02:58:48.923Z,6.20
2019-03-13T03:01:51.235Z,6.20
2019-03-13T03:04:31.949Z,6.20
2019-03-13T03:07:13.003Z,6.20
2019-03-13T03:09:54.243Z,6.20
2019-03-13T03:12:34.808Z,6.30
2019-03-13T03:15:15.695Z,6.20
2019-03-13T03:17:56.621Z,6.20
2019-03-13T03:20:37.121Z,6.10
2019-03-13T03:23:17.816Z,6.10
2019-03-13T03:25:58.919Z,6.00
2019-03-13T03:28:40.035Z,6.10
2019-03-13T03:31:21.344Z,6.00
2019-03-13T03:34:02.760Z,6.10
2019-03-13T03:36:43.371Z,6.10
2019-03-13T03:39:24.186Z,6.10
2019-03-13T03:42:04.922Z,6.10
2019-03-13T03:44:46.038Z,6.20
2019-03-13T03:47:26.747Z,6.30
2019-03-13T03:50:07.936Z,6.30
2019-03-13T03:52:48.778Z,6.40
2019-03-13T03:55:30.074Z,6.30
2019-03-13T03:58:11.615Z,6.20
2019-03-13T04:00:52.164Z,6.10
2019-03-13T04:03:33.179Z,6.00
2019-03-13T04:06:13.731Z,6.00
2019-03-13T04:08:54.269Z,6.10
2019-03-13T04:11:35.364Z,6.10
2019-03-13T04:14:16.716Z,6.10
2019-03-13T04:16:57.438Z,6.10
2019-03-13T04:19:38.454Z,6.00
2019-03-13T04:22:18.991Z,6.00
2019-03-13T04:24:48.617Z,6.10
2019-03-13T04:27:36.799Z,6.10
2019-03-13T04:30:25.268Z,6.10
2019-03-13T04:33:13.751Z,6.10
2019-03-13T04:36:01.939Z,6.10
2019-03-13T04:38:50.206Z,6.20
2019-03-13T04:41:38.710Z,6.10
2019-03-13T04:44:26.910Z,6.20
2019-03-13T04:47:15.383Z,6.30
2019-03-13T04:50:03.622Z,6.30
2019-03-13T04:52:51.793Z,6.20
2019-03-13T04:55:39.997Z,6.20
2019-03-13T04:58:28.194Z,6.10
2019-03-13T05:01:16.363Z,6.10
2019-03-13T05:04:04.554Z,6.10
2019-03-13T05:06:52.735Z,6.00
2019-03-13T05:09:40.942Z,6.10
2019-03-13T05:12:29.120Z,6.00
2019-03-13T05:15:17.318Z,6.00
2019-03-13T05:18:05.882Z,5.90
2019-03-13T05:20:54.113Z,5.90
2019-03-13T05:23:42.658Z,5.90
2019-03-13T05:26:30.930Z,5.70
2019-03-13T05:29:19.367Z,5.60
2019-03-13T05:32:07.565Z,5.70
2019-03-13T05:34:56.058Z,5.70
2019-03-13T05:37:44.235Z,5.70
2019-03-13T05:40:32.437Z,5.80
2019-03-13T05:43:20.605Z,5.70
2019-03-13T05:46:08.820Z,5.70
2019-03-13T05:48:57.162Z,5.80
2019-03-13T05:51:45.637Z,5.80
2019-03-13T05:54:33.821Z,5.90
2019-03-13T05:57:22.041Z,6.00
2019-03-13T06:00:10.282Z,6.00
2019-03-13T06:02:58.726Z,6.00
2019-03-13T06:05:47.002Z,6.10
2019-03-13T06:08:35.486Z,6.10
2019-03-13T06:11:23.665Z,6.10
2019-03-13T06:14:12.169Z,6.10
2019-03-13T06:17:00.350Z,6.20
2019-03-13T06:19:48.525Z,6.20
2019-03-13T06:22:36.721Z,6.30
2019-03-13T06:25:17.172Z,6.30
2019-03-13T06:27:58.142Z,6.30
2019-03-13T06:30:39.526Z,6.30
2019-03-13T06:33:19.923Z,6.40
2019-03-13T06:36:00.831Z,6.40
2019-03-13T06:38:41.785Z,6.40
2019-03-13T06:41:22.516Z,6.50
2019-03-13T06:44:03.265Z,6.50
2019-03-13T06:46:44.206Z,6.40
2019-03-13T06:49:25.005Z,6.40
2019-03-13T06:52:05.561Z,6.40
2019-03-13T06:54:46.697Z,6.40
2019-03-13T06:57:27.871Z,6.60
2019-03-13T07:00:27.725Z,6.60
2019-03-13T07:03:28.105Z,6.40
2019-03-13T07:06:27.836Z,6.50
2019-03-13T07:09:15.935Z,6.30
2019-03-13T07:12:10.569Z,6.30
2019-03-13T07:14:58.991Z,6.30
2019-03-13T07:18:06.204Z,6.60
2019-03-13T07:21:13.527Z,7.10
2019-03-13T07:24:20.778Z,6.80
2019-03-13T07:27:17.419Z,6.80
2019-03-13T07:30:03.857Z,6.90
2019-03-13T07:32:59.963Z,6.80
2019-03-13T07:36:03.398Z,7.00
2019-03-13T07:42:03.067Z,7.10
2019-03-13T07:45:03.022Z,7.10
2019-03-13T07:47:54.242Z,7.00
2019-03-13T07:50:43.631Z,7.10
2019-03-13T07:53:43.534Z,7.10
2019-03-13T07:56:49.430Z,7.10
2019-03-13T07:59:49.511Z,7.20
2019-03-13T08:02:55.809Z,7.30
2019-03-13T08:05:53.310Z,7.50
2019-03-13T08:08:48.874Z,7.50
2019-03-13T08:11:56.342Z,7.50
2019-03-13T08:14:53.072Z,7.50
2019-03-13T08:18:00.635Z,7.60
2019-03-13T08:21:07.870Z,7.40
2019-03-13T08:24:15.385Z,7.50
2019-03-13T08:27:20.998Z,7.50
2019-03-13T08:30:21.363Z,7.50
2019-03-13T08:33:09.447Z,7.60
2019-03-13T08:36:12.027Z,7.80
2019-03-13T08:39:12.396Z,7.90
2019-03-13T08:42:12.731Z,7.80
2019-03-13T08:45:12.295Z,7.80
2019-03-13T08:48:00.511Z,7.80
2019-03-13T08:51:07.739Z,7.80
2019-03-13T08:54:15.318Z,7.70
2019-03-13T08:57:15.320Z,7.60
2019-03-13T09:00:18.646Z,7.60
2019-03-13T09:03:11.210Z,7.70
2019-03-13T09:06:07.247Z,7.60
2019-03-13T09:08:57.024Z,7.50
2019-03-13T09:11:45.471Z,7.60
2019-03-13T09:14:52.751Z,7.70
2019-03-13T09:18:00.259Z,7.80
2019-03-13T09:21:07.474Z,7.80
2019-03-13T09:23:55.631Z,8.00
2019-03-13T09:27:02.843Z,8.00
2019-03-13T09:30:10.076Z,8.00
2019-03-13T09:32:58.226Z,8.10
2019-03-13T09:36:05.444Z,8.10
2019-03-13T09:39:12.685Z,8.20
2019-03-13T09:42:19.891Z,8.30
2019-03-13T09:45:27.192Z,8.10
2019-03-13T09:48:34.763Z,8.00
2019-03-13T09:51:29.050Z,8.00
2019-03-13T09:54:20.990Z,8.00
2019-03-13T09:57:20.616Z,8.10
2019-03-13T10:00:15.383Z,8.00
2019-03-13T10:03:15.322Z,7.80
2019-03-13T10:06:04.451Z,7.80
2019-03-13T10:09:04.251Z,7.90
2019-03-13T10:11:55.282Z,8.00
2019-03-13T10:14:48.839Z,7.90
2019-03-13T10:17:54.699Z,7.90
2019-03-13T10:21:03.076Z,8.00
2019-03-13T10:24:03.040Z,8.00
2019-03-13T10:27:03.198Z,8.00
2019-03-13T10:29:49.674Z,8.00
2019-03-13T10:32:36.859Z,8.10
2019-03-13T10:35:27.583Z,8.00
2019-03-13T10:38:13.150Z,8.00
2019-03-13T10:41:10.969Z,8.10
2019-03-13T10:44:18.455Z,8.30
2019-03-13T10:47:25.675Z,8.30
2019-03-13T10:50:33.063Z,8.50
2019-03-13T10:53:40.548Z,8.60
2019-03-13T10:56:36.280Z,8.40
2019-03-13T10:59:43.527Z,8.60
2019-03-13T11:02:51.051Z,8.60
2019-03-13T11:05:58.284Z,8.60
2019-03-13T11:09:05.772Z,8.70
2019-03-13T11:12:13.002Z,8.80
2019-03-13T11:15:20.228Z,9.00
2019-03-13T11:18:27.443Z,9.10
2019-03-13T11:21:34.679Z,9.10
2019-03-13T11:24:41.947Z,9.10
2019-03-13T11:27:45.070Z,9.00
2019-03-13T11:30:47.631Z,8.90
2019-03-13T11:33:47.971Z,8.90
2019-03-13T11:36:47.489Z,8.70
2019-03-13T11:39:47.053Z,8.70
2019-03-13T11:42:46.796Z,8.50
2019-03-13T11:45:52.054Z,8.50
2019-03-13T11:48:50.031Z,8.50
2019-03-13T11:51:44.714Z,8.70
2019-03-13T11:54:44.939Z,8.80
2019-03-13T11:57:45.275Z,8.80
2019-03-13T12:00:44.671Z,8.70
2019-03-13T12:03:44.810Z,8.70
2019-03-13T12:06:50.230Z,8.70
2019-03-13T12:09:49.819Z,8.80
2019-03-13T12:12:49.254Z,9.00
2019-03-13T12:15:46.163Z,9.00
2019-03-13T12:18:46.297Z,9.00
2019-03-13T12:21:34.029Z,9.10
2019-03-13T12:24:23.777Z,9.00
2019-03-13T12:27:19.222Z,9.00
2019-03-13T12:30:14.061Z,8.90
2019-03-13T12:33:20.039Z,8.90
2019-03-13T12:36:19.539Z,8.90
2019-03-13T12:39:07.633Z,8.90
2019-03-13T12:42:00.935Z,8.90
2019-03-13T12:45:00.751Z,8.90
2019-03-13T12:47:50.963Z,8.90
2019-03-13T12:50:36.605Z,8.90
2019-03-13T12:53:26.967Z,8.90
2019-03-13T12:56:32.903Z,8.80
2019-03-13T12:59:21.171Z,8.80
2019-03-13T13:02:20.958Z,8.80
2019-03-13T13:05:16.121Z,8.90
2019-03-13T13:08:16.075Z,8.90
2019-03-13T13:11:14.534Z,8.90
2019-03-13T13:14:03.792Z,8.90
2019-03-13T13:17:03.892Z,8.90
2019-03-13T13:19:45.103Z,8.80
2019-03-13T13:22:14.233Z,8.80
2019-03-13T13:25:02.398Z,8.70
2019-03-13T13:27:50.693Z,8.70
2019-03-13T13:30:31.802Z,8.70
2019-03-13T13:33:12.695Z,8.80
2019-03-13T13:35:41.849Z,8.70
2019-03-13T13:38:30.058Z,8.60
2019-03-13T13:40:59.486Z,8.70
2019-03-13T13:43:28.563Z,8.70
2019-03-13T13:46:18.643Z,8.80
2019-03-13T13:49:06.878Z,8.90
2019-03-13T13:51:55.078Z,9.00
2019-03-13T13:54:43.255Z,9.00
2019-03-13T13:57:31.475Z,9.00
2019-03-13T14:00:20.003Z,9.00
2019-03-13T14:03:08.232Z,9.00
2019-03-13T14:05:56.402Z,9.00
2019-03-13T14:08:25.495Z,8.90
2019-03-13T14:11:13.680Z,8.80
2019-03-13T14:14:02.191Z,8.70
2019-03-13T14:16:50.667Z,8.70
2019-03-13T14:19:38.835Z,8.70
2019-03-13T14:22:27.069Z,8.60
2019-03-13T14:25:15.297Z,8.60
2019-03-13T14:28:04.154Z,8.50
2019-03-13T14:30:45.363Z,8.40
2019-03-13T14:33:26.070Z,8.40
2019-03-13T14:36:06.801Z,8.40
2019-03-13T14:38:47.519Z,8.40
2019-03-13T14:41:28.859Z,8.40
2019-03-13T14:44:09.560Z,8.40
2019-03-13T14:46:50.559Z,8.30
2019-03-13T14:49:31.210Z,8.30
2019-03-13T14:52:11.897Z,8.40
2019-03-13T14:54:52.642Z,8.20
2019-03-13T14:57:33.680Z,8.10
2019-03-13T15:00:14.864Z,8.20
2019-03-13T15:02:55.484Z,8.20
2019-03-13T15:05:36.283Z,8.30
2019-03-13T15:08:17.311Z,8.40
2019-03-13T15:10:58.612Z,8.40
2019-03-13T15:13:39.535Z,8.40
2019-03-13T15:16:20.372Z,8.40
2019-03-13T15:19:01.356Z,8.40
2019-03-13T15:21:43.006Z,8.40
2019-03-13T15:24:23.517Z,8.40
2019-03-13T15:27:04.368Z,8.40
2019-03-13T15:29:45.174Z,8.40
2019-03-13T15:32:26.695Z,8.40
2019-03-13T15:35:07.119Z,8.40
2019-03-13T15:37:47.893Z,8.40
2019-03-13T15:40:28.989Z,8.30
2019-03-13T15:43:09.535Z,8.40
2019-03-13T15:45:50.509Z,8.40
2019-03-13T15:48:31.430Z,8.40
2019-03-13T15:51:12.368Z,8.50
2019-03-13T15:53:53.456Z,8.40
2019-03-13T15:56:34.507Z,8.40
2019-03-13T15:59:14.979Z,8.40
2019-03-13T16:01:56.063Z,8.40
2019-03-13T16:04:36.922Z,8.40
2019-03-13T16:07:17.822Z,8.50
2019-03-13T16:09:58.565Z,8.50
2019-03-13T16:12:39.126Z,8.40
2019-03-13T16:15:20.187Z,8.30
2019-03-13T16:18:00.641Z,8.40
2019-03-13T16:20:41.426Z,8.40
2019-03-13T16:23:22.079Z,8.30
2019-03-13T16:26:03.231Z,8.20
2019-03-13T16:28:43.970Z,8.20
2019-03-13T16:31:25.227Z,8.20
2019-03-13T16:34:06.727Z,8.20
2019-03-13T16:36:48.274Z,8.20
2019-03-13T16:39:29.440Z,8.20
2019-03-13T16:42:10.267Z,8.20
2019-03-13T16:44:50.868Z,8.30
2019-03-13T16:47:20.490Z,8.30
2019-03-13T16:50:09.797Z,8.20
2019-03-13T16:52:58.219Z,8.20
2019-03-13T16:55:46.423Z,8.20
2019-03-13T16:58:34.618Z,8.20
2019-03-13T17:01:22.783Z,8.30
2019-03-13T17:04:11.235Z,8.30
2019-03-13T17:06:59.412Z,8.30
2019-03-13T17:09:47.889Z,8.40
2019-03-13T17:12:36.059Z,8.40
2019-03-13T17:15:24.520Z,8.30
2019-03-13T17:18:12.951Z,8.40
2019-03-13T17:21:01.147Z,8.30
2019-03-13T17:23:30.502Z,8.30
2019-03-13T17:26:18.700Z,8.30
2019-03-13T17:29:06.894Z,8.20
2019-03-13T17:31:47.927Z,8.10
2019-03-13T17:34:30.369Z,8.20
2019-03-13T17:37:11.775Z,8.10
2019-03-13T17:39:53.332Z,8.10
2019-03-13T17:42:33.919Z,8.10
2019-03-13T17:45:15.129Z,8.00
2019-03-13T17:47:55.664Z,8.00
2019-03-13T17:50:36.366Z,8.00
2019-03-13T17:53:17.597Z,7.90
2019-03-13T17:55:58.778Z,7.90
2019-03-13T17:58:39.299Z,7.90
2019-03-13T18:01:20.941Z,7.80
2019-03-13T18:04:02.200Z,7.90
2019-03-13T18:06:43.616Z,7.90
2019-03-13T18:09:24.016Z,7.90
2019-03-13T18:12:04.414Z,7.90
2019-03-13T18:14:45.214Z,7.80
2019-03-13T18:17:26.427Z,7.90
2019-03-13T18:20:06.957Z,8.00
2019-03-13T18:22:47.426Z,8.00
2019-03-13T18:25:28.524Z,8.00
2019-03-13T18:28:10.030Z,8.00
2019-03-13T18:30:50.786Z,7.90
2019-03-13T18:33:31.585Z,7.80
2019-03-13T18:36:14.237Z,7.70
2019-03-13T18:38:55.091Z,7.60
2019-03-13T18:41:35.930Z,7.40
2019-03-13T18:44:17.109Z,7.30
2019-03-13T18:46:58.011Z,7.20
2019-03-13T18:49:38.994Z,7.20
2019-03-13T18:52:19.595Z,7.20
2019-03-13T18:55:00.444Z,7.20
2019-03-13T18:57:41.206Z,7.20
2019-03-13T19:00:21.655Z,7.10
2019-03-13T19:03:02.188Z,7.00
2019-03-13T19:05:42.886Z,7.10
2019-03-13T19:08:23.451Z,7.00
2019-03-13T19:11:04.414Z,7.00
2019-03-13T19:13:33.543Z,7.00
2019-03-13T19:16:14.674Z,6.90
2019-03-13T19:18:55.611Z,6.80
2019-03-13T19:21:36.900Z,6.80
2019-03-13T19:24:18.243Z,6.90
2019-03-13T19:26:47.513Z,6.80
2019-03-13T19:29:35.688Z,6.70
2019-03-13T19:32:42.935Z,6.60
2019-03-13T19:35:31.246Z,6.70
2019-03-13T19:38:19.432Z,6.70
2019-03-13T19:40:48.563Z,6.70
2019-03-13T19:43:36.743Z,6.70
2019-03-13T19:46:25.045Z,6.70
2019-03-13T19:49:13.232Z,6.60
2019-03-13T19:52:01.494Z,6.50
2019-03-13T19:54:49.662Z,6.40
2019-03-13T19:57:38.155Z,6.40
2019-03-13T20:03:21.699Z,6.40
2019-03-13T20:06:09.933Z,6.30
2019-03-13T20:08:58.427Z,6.10
2019-03-13T20:11:46.670Z,6.10
2019-03-13T20:14:28.246Z,6.10
2019-03-13T20:16:57.423Z,6.10
2019-03-13T20:19:26.491Z,6.20
2019-03-13T20:22:14.963Z,6.20
2019-03-13T20:25:03.220Z,6.20
2019-03-13T20:27:54.534Z,6.30
2019-03-13T20:30:41.814Z,6.30
2019-03-13T20:33:29.998Z,6.30
2019-03-13T20:36:18.214Z,6.40
2019-03-13T20:39:06.887Z,6.30
2019-03-13T20:41:55.132Z,6.40
2019-03-13T20:44:43.303Z,6.30
2019-03-13T20:47:31.783Z,6.30
2019-03-13T20:50:20.247Z,6.30
2019-03-13T20:53:08.806Z,6.30
2019-03-13T20:55:58.960Z,6.20
2019-03-13T20:58:48.877Z,6.20
2019-03-13T21:01:38.317Z,6.40
2019-03-13T21:04:08.860Z,6.40
2019-03-13T21:06:58.310Z,6.40
2019-03-13T21:09:28.114Z,6.40
2019-03-13T21:12:16.842Z,6.30
2019-03-13T21:14:58.856Z,6.30
2019-03-13T21:17:40.785Z,6.30
2019-03-13T21:20:21.932Z,6.20
2019-03-13T21:22:51.452Z,6.20
2019-03-13T21:25:40.359Z,6.20
2019-03-13T21:28:11.501Z,6.20
2019-03-13T21:30:41.259Z,6.10
2019-03-13T21:33:30.044Z,6.10
2019-03-13T21:36:19.234Z,6.00
2019-03-13T21:38:49.174Z,5.90
2019-03-13T21:41:41.001Z,5.80
2019-03-13T21:44:30.395Z,5.90
2019-03-13T21:47:20.179Z,6.00
2019-03-13T21:50:09.886Z,5.90
2019-03-13T21:52:59.458Z,5.90
2019-03-13T21:55:48.198Z,6.00
2019-03-13T21:58:37.328Z,6.00
2019-03-13T22:07:04.655Z,6.00
2019-03-13T22:09:53.832Z,5.90
2019-03-13T22:12:43.722Z,5.80
2019-03-13T22:15:25.531Z,5.60
2019-03-13T22:17:55.570Z,5.60
2019-03-13T22:23:33.576Z,5.60
2019-03-13T22:26:22.854Z,5.60
2019-03-13T22:29:12.002Z,5.40
2019-03-13T22:31:41.857Z,5.30
2019-03-13T22:34:23.603Z,5.40
2019-03-13T22:37:04.870Z,5.20
2019-03-13T22:42:30.807Z,5.20
2019-03-13T22:45:12.076Z,5.20
2019-03-13T22:47:53.082Z,5.20
2019-03-13T22:53:17.038Z,5.20
2019-03-13T23:01:43.206Z,5.50
2019-03-13T23:04:25.442Z,5.50
2019-03-13T23:07:06.920Z,5.50
2019-03-13T23:09:48.528Z,5.40
2019-03-13T23:12:30.448Z,5.50
2019-03-13T23:15:11.726Z,5.40
2019-03-13T23:17:53.276Z,5.40
2019-03-13T23:20:35.571Z,5.40
2019-03-13T23:23:17.003Z,5.40
2019-03-13T23:25:58.572Z,5.40
2019-03-13T23:28:40.035Z,5.20
2019-03-13T23:31:22.137Z,5.20
2019-03-13T23:34:04.187Z,5.10
2019-03-13T23:36:45.379Z,5.10
2019-03-13T23:39:27.143Z,5.10
2019-03-13T23:42:09.355Z,5.20
2019-03-13T23:44:50.298Z,5.10
2019-03-13T23:47:31.413Z,5.00
2019-03-13T23:50:13.199Z,4.90
2019-03-13T23:52:43.438Z,4.90
2019-03-13T23:55:32.738Z,4.80
2019-03-13T23:58:21.671Z,4.80
